Aérodrome :
LOGIN :

S'inscrire | Disclaimer

   EN    FR    IT 

 










Légende :    VFR   VFR Marginal   IFR   IFR Intensif   IFR Très Intensif
Visi : 
Plafond : 
>= 8 km
>= 3000ft
5 à 8 km
1000 à 3000 ft
1500m à 5 km
500 à 1000 ft
800 à 1500m
200 à 500 ft
< 800m
< 200 ft
Symboles :   Orages  Brouillard  Fortes neiges  Fortes précipitations  Vent > 20 kt
SIGMETs :   Divers  Orages  Givrage  Turbulence  Onde Orograph.  Cendres Volcan.






- Altitude de l'aérodrome : 526 ft
- Code IATA : LTN


EGGW - London Luton

DERNIER METAR :
  • 300050Z AUTO 28011KT 9999 NCD 12/10 Q1008

METARs EXPIRÉS :
  • 300020Z AUTO 28011KT 9999 NCD 13/10 Q1008
  • 292350Z AUTO 28010KT 9999 NCD 13/10 Q1009
  • 292320Z AUTO 29010KT 9999 NCD 13/09 Q1009
  • 292250Z AUTO 30010KT 9999 NCD 13/09 Q1009
  • 292220Z AUTO 30010KT 9999 NCD 13/10 Q1009
  • 292150Z AUTO 30011KT 9999 -RA FEW046 13/10 Q1009
  • 292120Z AUTO 29011KT 9999 NCD 14/10 Q1009
  • 292050Z AUTO 29010KT 9999 NCD 14/10 Q1009

TAF TAF EGGW
Valide du 30 à 00h jusqu'au 31 à 00h UTC


292258Z 3000/3024 30008KT 9999 SCT042
PROB30
TEMPO 3003/3007 BKN013
TEMPO 3009/3018 7000 SHRA
PROB30
TEMPO 3011/3018 34015G25KT 3000 +SHRA BKN014 BKN020CB
PROB30
TEMPO 3018/3020 9000 -SHRA
ATIS : +44 1582 395 204



MET'MAP, la Météo Aéronautique d'un coup d'oeil ! - Copyright ORBIFLY Décembre 2007 - Disclaimer

ORBIFLY MET'MAP TEAM :

Programmation & Développement : Alexandra Zaïnal
Sur une idée originale de : Baudouin d'Aumeries
Soutien technique & logistique : Manuel Goepfert
Assistance : Marc-Olivier Méhu




SOURCES & CREDITS :

   NOAA